createdAt,value
2018-02-25T00:00:26.134Z,4.00
2018-02-25T00:01:26.103Z,4.00
2018-02-25T00:02:26.102Z,4.00
2018-02-25T00:03:26.042Z,4.00
2018-02-25T00:04:26.010Z,4.00
2018-02-25T00:05:25.980Z,4.00
2018-02-25T00:06:25.952Z,4.00
2018-02-25T00:07:25.920Z,4.00
2018-02-25T00:08:25.892Z,4.00
2018-02-25T00:09:25.888Z,4.00
2018-02-25T00:10:25.841Z,4.00
2018-02-25T00:11:25.802Z,4.00
2018-02-25T00:12:25.776Z,4.00
2018-02-25T00:13:25.750Z,4.00
2018-02-25T00:14:25.720Z,4.00
2018-02-25T00:15:25.718Z,4.00
2018-02-25T00:16:25.658Z,4.00
2018-02-25T00:17:25.646Z,4.00
2018-02-25T00:18:25.617Z,4.00
2018-02-25T00:19:25.579Z,4.00
2018-02-25T00:20:25.551Z,4.00
2018-02-25T00:21:25.587Z,4.00
2018-02-25T00:22:25.482Z,4.00
2018-02-25T00:23:25.454Z,4.00
2018-02-25T00:24:25.434Z,4.00
2018-02-25T00:25:25.398Z,4.00
2018-02-25T00:26:25.367Z,4.00
2018-02-25T00:27:25.337Z,4.00
2018-02-25T00:28:25.306Z,4.00
2018-02-25T00:29:25.277Z,4.00
2018-02-25T00:30:25.247Z,4.00
2018-02-25T00:31:25.222Z,4.00
2018-02-25T00:32:25.188Z,4.00
2018-02-25T00:33:25.159Z,4.00
2018-02-25T00:34:25.132Z,4.00
2018-02-25T00:35:25.097Z,4.00
2018-02-25T00:36:25.072Z,4.00
2018-02-25T00:37:25.049Z,4.00
2018-02-25T00:38:25.019Z,4.00
2018-02-25T00:39:24.990Z,4.00
2018-02-25T00:40:24.956Z,4.00
2018-02-25T00:41:24.926Z,4.00
2018-02-25T00:42:24.898Z,4.00
2018-02-25T00:43:24.867Z,4.00
2018-02-25T00:44:24.838Z,4.00
2018-02-25T00:45:24.815Z,4.00
2018-02-25T00:46:24.778Z,4.00
2018-02-25T00:47:24.751Z,4.00
2018-02-25T00:48:24.729Z,4.00
2018-02-25T00:49:24.776Z,4.00
2018-02-25T00:50:24.660Z,4.00
2018-02-25T00:51:24.635Z,4.00
2018-02-25T00:52:24.603Z,4.00
2018-02-25T00:53:24.580Z,4.00
2018-02-25T00:54:24.542Z,4.00
2018-02-25T00:55:24.514Z,4.00
2018-02-25T00:56:24.485Z,4.00
2018-02-25T00:57:24.456Z,4.00
2018-02-25T00:58:24.426Z,4.00
2018-02-25T00:59:24.401Z,4.00
2018-02-25T01:00:24.470Z,4.00
2018-02-25T01:01:24.337Z,4.00
2018-02-25T01:02:24.324Z,4.00
2018-02-25T01:03:24.303Z,4.00
2018-02-25T01:04:24.248Z,4.00
2018-02-25T01:05:24.221Z,4.00
2018-02-25T01:06:24.246Z,4.00
2018-02-25T01:07:24.161Z,4.00
2018-02-25T01:08:24.131Z,4.00
2018-02-25T01:09:24.102Z,4.00
2018-02-25T01:10:24.071Z,4.00
2018-02-25T01:11:24.041Z,4.00
2018-02-25T01:12:24.011Z,4.00
2018-02-25T01:13:23.980Z,4.00
2018-02-25T01:14:23.952Z,4.00
2018-02-25T01:15:23.923Z,4.00
2018-02-25T01:16:23.900Z,4.00
2018-02-25T01:17:23.863Z,4.00
2018-02-25T01:18:23.833Z,4.00
2018-02-25T01:19:23.805Z,4.00
2018-02-25T01:20:23.782Z,4.00
2018-02-25T01:21:23.747Z,4.00
2018-02-25T01:22:23.715Z,4.00
2018-02-25T01:23:23.688Z,4.00
2018-02-25T01:24:23.657Z,4.00
2018-02-25T01:25:23.639Z,4.00
2018-02-25T01:26:23.600Z,4.00
2018-02-25T01:27:23.568Z,4.00
2018-02-25T01:28:23.553Z,4.00
2018-02-25T01:29:23.520Z,4.00
2018-02-25T01:30:23.487Z,4.00
2018-02-25T01:31:23.589Z,4.00
2018-02-25T01:32:23.464Z,4.00
2018-02-25T01:33:23.390Z,4.00
2018-02-25T01:34:23.480Z,4.00
2018-02-25T01:35:23.339Z,4.00
2018-02-25T01:36:23.301Z,4.00
2018-02-25T01:37:23.331Z,4.00
2018-02-25T01:38:23.244Z,4.00
2018-02-25T01:39:23.219Z,4.00
2018-02-25T01:40:23.190Z,4.00
2018-02-25T01:41:23.155Z,4.00
2018-02-25T01:42:23.122Z,4.00
2018-02-25T01:43:23.098Z,4.00
2018-02-25T01:44:23.070Z,4.00
2018-02-25T01:45:23.050Z,4.00
2018-02-25T01:46:23.015Z,4.00
2018-02-25T01:47:22.983Z,4.00
2018-02-25T01:48:23.002Z,4.00
2018-02-25T01:49:22.917Z,4.00
2018-02-25T01:50:22.887Z,4.00
2018-02-25T01:51:22.858Z,4.00
2018-02-25T01:52:22.826Z,4.00
2018-02-25T01:53:22.801Z,4.00
2018-02-25T01:54:22.771Z,4.00
2018-02-25T01:55:22.735Z,4.00
2018-02-25T01:56:22.708Z,4.00
2018-02-25T01:57:22.678Z,4.00
2018-02-25T01:58:22.647Z,4.00
2018-02-25T01:59:22.621Z,4.00
2018-02-25T02:00:22.588Z,4.00
2018-02-25T02:01:22.559Z,4.00
2018-02-25T02:02:22.544Z,4.00
2018-02-25T02:03:22.498Z,4.00
2018-02-25T02:04:22.478Z,4.00
2018-02-25T02:05:22.442Z,4.00
2018-02-25T02:06:22.418Z,4.00
2018-02-25T02:07:22.379Z,4.00
2018-02-25T02:08:22.353Z,4.00
2018-02-25T02:09:22.320Z,4.00
2018-02-25T02:10:22.289Z,4.00
2018-02-25T02:11:22.277Z,4.00
2018-02-25T02:12:22.237Z,4.00
2018-02-25T02:13:22.201Z,4.00
2018-02-25T02:14:22.174Z,4.00
2018-02-25T02:15:22.144Z,4.00
2018-02-25T02:16:22.118Z,4.00
2018-02-25T02:17:22.093Z,4.00
2018-02-25T02:18:22.057Z,4.00
2018-02-25T02:19:22.137Z,4.00
2018-02-25T02:20:21.996Z,4.00
2018-02-25T02:21:21.980Z,4.00
2018-02-25T02:22:21.936Z,4.00
2018-02-25T02:23:21.902Z,4.00
2018-02-25T02:24:21.871Z,4.00
2018-02-25T02:25:21.845Z,4.00
2018-02-25T02:26:21.815Z,4.00
2018-02-25T02:27:21.789Z,4.00
2018-02-25T02:28:21.751Z,4.00
2018-02-25T02:29:21.731Z,4.00
2018-02-25T02:30:21.784Z,4.00
2018-02-25T02:31:21.672Z,4.00
2018-02-25T02:32:21.633Z,4.00
2018-02-25T02:33:21.616Z,4.00
2018-02-25T02:34:21.572Z,4.00
2018-02-25T02:35:21.543Z,4.00
2018-02-25T02:36:21.515Z,4.00
2018-02-25T02:37:21.482Z,4.00
2018-02-25T02:38:21.452Z,4.00
2018-02-25T02:39:21.422Z,4.00
2018-02-25T02:40:21.393Z,4.00
2018-02-25T02:41:21.362Z,4.00
2018-02-25T02:42:21.332Z,4.00
2018-02-25T02:43:21.300Z,4.00
2018-02-25T02:44:21.271Z,4.00
2018-02-25T02:45:21.241Z,4.00
2018-02-25T02:46:21.215Z,4.00
2018-02-25T02:47:21.189Z,4.00
2018-02-25T02:48:21.151Z,4.00
2018-02-25T02:49:21.129Z,4.00
2018-02-25T02:50:21.093Z,4.00
2018-02-25T02:51:21.065Z,4.00
2018-02-25T02:52:21.033Z,4.00
2018-02-25T02:53:21.004Z,4.00
2018-02-25T02:54:20.971Z,4.00
2018-02-25T02:55:20.942Z,4.00
2018-02-25T02:56:20.919Z,4.00
2018-02-25T02:57:20.882Z,4.00
2018-02-25T02:58:20.850Z,4.00
2018-02-25T02:59:20.819Z,4.00
2018-02-25T03:00:20.789Z,4.00
2018-02-25T03:01:20.903Z,4.00
2018-02-25T03:02:20.733Z,4.00
2018-02-25T03:03:20.706Z,4.00
2018-02-25T03:04:20.777Z,4.00
2018-02-25T03:05:20.646Z,4.00
2018-02-25T03:06:20.611Z,4.00
2018-02-25T03:07:20.612Z,4.00
2018-02-25T03:08:20.550Z,4.00
2018-02-25T03:09:20.518Z,4.00
2018-02-25T03:10:20.488Z,4.00
2018-02-25T03:11:20.462Z,4.00
2018-02-25T03:12:20.429Z,4.00
2018-02-25T03:13:20.397Z,4.00
2018-02-25T03:14:20.368Z,4.00
2018-02-25T03:15:20.336Z,4.00
2018-02-25T03:16:20.308Z,4.00
2018-02-25T03:17:20.277Z,4.00
2018-02-25T03:18:20.357Z,4.00
2018-02-25T03:19:20.217Z,4.00
2018-02-25T03:20:20.186Z,4.00
2018-02-25T03:21:20.179Z,4.00
2018-02-25T03:22:20.126Z,4.00
2018-02-25T03:23:20.098Z,4.00
2018-02-25T03:24:20.069Z,4.00
2018-02-25T03:25:20.041Z,4.00
2018-02-25T03:26:20.007Z,4.00
2018-02-25T03:27:19.977Z,4.00
2018-02-25T03:28:19.946Z,4.00
2018-02-25T03:29:19.915Z,4.00
2018-02-25T03:30:19.887Z,4.00
2018-02-25T03:31:19.857Z,4.00
2018-02-25T03:32:19.825Z,4.00
2018-02-25T03:33:19.796Z,4.00
2018-02-25T03:34:19.765Z,4.00
2018-02-25T03:35:19.735Z,4.00
2018-02-25T03:36:19.706Z,4.00
2018-02-25T03:37:19.675Z,4.00
2018-02-25T03:38:19.645Z,4.00
2018-02-25T03:39:19.622Z,4.00
2018-02-25T03:40:19.585Z,4.00
2018-02-25T03:41:19.553Z,4.00
2018-02-25T03:42:19.525Z,4.00
2018-02-25T03:43:19.493Z,4.00
2018-02-25T03:44:19.464Z,4.00
2018-02-25T03:45:19.438Z,4.00
2018-02-25T03:46:19.421Z,4.00
2018-02-25T03:47:19.372Z,4.00
2018-02-25T03:48:19.346Z,4.00
2018-02-25T03:49:19.322Z,4.00
2018-02-25T03:50:19.287Z,4.00
2018-02-25T03:51:19.254Z,4.00
2018-02-25T03:52:19.226Z,4.00
2018-02-25T03:53:19.203Z,4.00
2018-02-25T03:54:19.164Z,4.00
2018-02-25T03:55:19.143Z,4.00
2018-02-25T03:56:19.105Z,4.00
2018-02-25T03:57:19.077Z,4.00
2018-02-25T03:58:19.044Z,4.00
2018-02-25T03:59:19.021Z,4.00
2018-02-25T04:00:18.989Z,4.00
2018-02-25T04:01:18.961Z,4.00
2018-02-25T04:02:18.931Z,4.00
2018-02-25T04:03:18.898Z,4.00
2018-02-25T04:04:18.868Z,4.00
2018-02-25T04:05:18.839Z,4.00
2018-02-25T04:06:18.807Z,4.00
2018-02-25T04:07:18.777Z,4.00
2018-02-25T04:08:18.748Z,4.00
2018-02-25T04:09:18.719Z,4.00
2018-02-25T04:10:18.689Z,4.00
2018-02-25T04:11:18.670Z,4.00
2018-02-25T04:12:18.627Z,4.00
2018-02-25T04:13:18.598Z,4.00
2018-02-25T04:14:18.567Z,4.00
2018-02-25T04:15:18.536Z,4.00
2018-02-25T04:16:18.512Z,4.00
2018-02-25T04:17:18.479Z,4.00
2018-02-25T04:18:18.447Z,4.00
2018-02-25T04:19:18.416Z,4.00
2018-02-25T04:20:18.388Z,4.00
2018-02-25T04:21:18.363Z,4.00
2018-02-25T04:22:18.323Z,4.00
2018-02-25T04:23:18.298Z,4.00
2018-02-25T04:24:18.266Z,4.00
2018-02-25T04:25:18.236Z,4.00
2018-02-25T04:26:18.205Z,4.00
2018-02-25T04:27:18.175Z,4.00
2018-02-25T04:28:18.243Z,4.00
2018-02-25T04:29:18.116Z,4.00
2018-02-25T04:30:18.084Z,4.00
2018-02-25T04:31:18.061Z,4.00
2018-02-25T04:32:18.025Z,4.00
2018-02-25T04:33:17.994Z,4.00
2018-02-25T04:34:17.972Z,4.00
2018-02-25T04:35:17.937Z,4.00
2018-02-25T04:36:17.904Z,4.00
2018-02-25T04:37:17.891Z,4.00
2018-02-25T04:38:17.844Z,4.00
2018-02-25T04:39:17.821Z,4.00
2018-02-25T04:40:17.784Z,4.00
2018-02-25T04:41:17.756Z,4.00
2018-02-25T04:42:17.726Z,4.00
2018-02-25T04:43:17.696Z,4.00
2018-02-25T04:44:17.666Z,4.00
2018-02-25T04:45:17.635Z,4.00
2018-02-25T04:46:17.605Z,4.00
2018-02-25T04:47:17.578Z,4.00
2018-02-25T04:48:17.547Z,4.00
2018-02-25T04:49:17.524Z,4.00
2018-02-25T04:50:17.485Z,4.00
2018-02-25T04:51:17.455Z,4.00
2018-02-25T04:52:17.425Z,4.00
2018-02-25T04:53:17.397Z,4.00
2018-02-25T04:54:17.364Z,4.00
2018-02-25T04:55:17.333Z,4.00
2018-02-25T04:56:17.310Z,4.00
2018-02-25T04:57:17.281Z,4.00
2018-02-25T04:58:17.245Z,4.00
2018-02-25T04:59:17.214Z,4.00
2018-02-25T05:00:17.184Z,4.00
2018-02-25T05:01:17.152Z,4.00
2018-02-25T05:02:17.122Z,4.00
2018-02-25T05:03:17.093Z,4.00
2018-02-25T05:04:17.062Z,4.00
2018-02-25T05:05:17.031Z,4.00
2018-02-25T05:06:17.001Z,4.00
2018-02-25T05:07:16.971Z,4.00
2018-02-25T05:08:16.945Z,4.00
2018-02-25T05:09:16.912Z,4.00
2018-02-25T05:10:16.879Z,4.00
2018-02-25T05:11:16.855Z,4.00
2018-02-25T05:12:16.829Z,4.00
2018-02-25T05:13:16.810Z,4.00
2018-02-25T05:14:16.761Z,4.00
2018-02-25T05:15:16.733Z,4.00
2018-02-25T05:16:16.726Z,4.00
2018-02-25T05:17:16.667Z,4.00
2018-02-25T05:18:16.638Z,4.00
2018-02-25T05:19:16.609Z,4.00
2018-02-25T05:20:16.582Z,4.00
2018-02-25T05:21:16.549Z,4.00
2018-02-25T05:22:16.531Z,4.00
2018-02-25T05:23:16.507Z,4.00
2018-02-25T05:24:16.460Z,4.00
2018-02-25T05:25:16.430Z,4.00
2018-02-25T05:26:16.399Z,4.00
2018-02-25T05:27:16.368Z,4.00
2018-02-25T05:28:16.338Z,4.00
2018-02-25T05:29:16.308Z,4.00
2018-02-25T05:30:16.276Z,4.00
2018-02-25T05:31:16.252Z,4.00
2018-02-25T05:32:16.218Z,4.00
2018-02-25T05:33:16.191Z,4.00
2018-02-25T05:34:16.159Z,4.00
2018-02-25T05:35:16.125Z,4.00
2018-02-25T05:36:16.094Z,4.00
2018-02-25T05:37:16.066Z,4.00
2018-02-25T05:38:16.038Z,4.00
2018-02-25T05:39:16.006Z,4.00
2018-02-25T05:40:15.977Z,4.00
2018-02-25T05:41:15.946Z,4.00
2018-02-25T05:42:15.915Z,4.00
2018-02-25T05:43:15.886Z,4.00
2018-02-25T05:44:15.856Z,4.00
2018-02-25T05:45:15.833Z,4.00
2018-02-25T05:46:15.803Z,4.00
2018-02-25T05:47:15.764Z,0.00
2018-02-25T05:48:15.734Z,4.00
2018-02-25T05:49:15.724Z,4.00
2018-02-25T05:50:15.673Z,4.00
2018-02-25T05:51:15.652Z,4.00
2018-02-25T05:52:15.613Z,4.00
2018-02-25T05:53:15.583Z,4.00
2018-02-25T05:54:15.554Z,4.00
2018-02-25T05:55:15.524Z,8.00
2018-02-25T05:56:15.493Z,8.00
2018-02-25T05:57:15.463Z,8.00
2018-02-25T05:58:15.463Z,8.00
2018-02-25T05:59:15.398Z,12.00
2018-02-25T06:00:15.371Z,12.00
2018-02-25T06:01:15.415Z,16.00
2018-02-25T06:02:15.308Z,16.00
2018-02-25T06:03:15.279Z,20.00
2018-02-25T06:04:15.290Z,20.00
2018-02-25T06:05:15.217Z,24.00
2018-02-25T06:06:15.188Z,28.00
2018-02-25T06:07:15.169Z,32.00
2018-02-25T06:08:15.127Z,40.00
2018-02-25T06:09:15.096Z,44.00
2018-02-25T06:10:15.067Z,48.00
2018-02-25T06:11:15.039Z,60.00
2018-02-25T06:12:15.005Z,68.00
2018-02-25T06:13:14.976Z,80.00
2018-02-25T06:14:14.943Z,88.00
2018-02-25T06:15:14.933Z,100.00
2018-02-25T06:16:14.887Z,116.00
2018-02-25T06:17:14.853Z,128.00
2018-02-25T06:18:14.824Z,144.00
2018-02-25T06:19:14.796Z,164.00
2018-02-25T06:20:14.762Z,180.00
2018-02-25T06:21:14.730Z,204.00
2018-02-25T06:22:14.702Z,224.00
2018-02-25T06:23:14.670Z,248.00
2018-02-25T06:24:14.677Z,272.00
2018-02-25T06:25:14.609Z,300.00
2018-02-25T06:26:14.579Z,324.00
2018-02-25T06:27:14.548Z,356.00
2018-02-25T06:28:14.519Z,384.00
2018-02-25T06:29:14.535Z,416.00
2018-02-25T06:30:14.476Z,452.00
2018-02-25T06:31:14.427Z,484.00
2018-02-25T06:32:14.398Z,520.00
2018-02-25T06:33:14.369Z,560.00
2018-02-25T06:34:14.338Z,600.00
2018-02-25T06:35:14.307Z,636.00
2018-02-25T06:36:14.286Z,676.00
2018-02-25T06:37:14.247Z,720.00
2018-02-25T06:38:14.222Z,760.00
2018-02-25T06:39:14.186Z,804.00
2018-02-25T06:40:14.156Z,848.00
2018-02-25T06:41:14.126Z,896.00
2018-02-25T06:42:14.098Z,936.00
2018-02-25T06:43:14.165Z,984.00
2018-02-25T06:44:14.036Z,1028.00
2018-02-25T06:45:14.001Z,1076.00
2018-02-25T06:46:14.084Z,1120.00
2018-02-25T06:47:13.945Z,1172.00
2018-02-25T06:48:13.912Z,1220.00
2018-02-25T06:49:13.907Z,1264.00
2018-02-25T06:50:13.851Z,1308.00
2018-02-25T06:51:13.822Z,1356.00
2018-02-25T06:52:13.845Z,1404.00
2018-02-25T06:53:13.761Z,1448.00
2018-02-25T06:54:13.731Z,1492.00
2018-02-25T06:55:13.701Z,1540.00
2018-02-25T06:56:13.677Z,1580.00
2018-02-25T06:57:13.646Z,1628.00
2018-02-25T06:58:13.606Z,1672.00
2018-02-25T06:59:13.580Z,1716.00
2018-02-25T07:00:13.549Z,1760.00
2018-02-25T07:01:13.519Z,1804.00
2018-02-25T07:02:13.497Z,1844.00
2018-02-25T07:03:13.484Z,1864.00
2018-02-25T07:04:13.429Z,1908.00
2018-02-25T07:05:13.399Z,1944.00
2018-02-25T07:06:13.372Z,1988.00
2018-02-25T07:07:13.338Z,2024.00
2018-02-25T07:08:13.307Z,2068.00
2018-02-25T07:09:13.278Z,2104.00
2018-02-25T07:10:13.245Z,2148.00
2018-02-25T07:11:13.215Z,2184.00
2018-02-25T07:12:13.187Z,2220.00
2018-02-25T07:13:13.173Z,2260.00
2018-02-25T07:14:13.155Z,2296.00
2018-02-25T07:15:13.098Z,2332.00
2018-02-25T07:16:13.075Z,2368.00
2018-02-25T07:17:13.049Z,2400.00
2018-02-25T07:18:13.004Z,2440.00
2018-02-25T07:19:12.976Z,2468.00
2018-02-25T07:20:12.943Z,2500.00
2018-02-25T07:21:12.931Z,2536.00
2018-02-25T07:22:12.883Z,2572.00
2018-02-25T07:23:12.855Z,2608.00
2018-02-25T07:24:12.826Z,2644.00
2018-02-25T07:25:12.898Z,2676.00
2018-02-25T07:26:12.765Z,2708.00
2018-02-25T07:27:12.738Z,2744.00
2018-02-25T07:28:12.718Z,2768.00
2018-02-25T07:29:12.680Z,2792.00
2018-02-25T07:30:12.649Z,2820.00
2018-02-25T07:31:12.639Z,2848.00
2018-02-25T07:32:12.589Z,2872.00
2018-02-25T07:33:12.555Z,2896.00
2018-02-25T07:34:12.524Z,2928.00
2018-02-25T07:35:12.496Z,2960.00
2018-02-25T07:36:12.462Z,2992.00
2018-02-25T07:37:12.438Z,3008.00
2018-02-25T07:38:12.402Z,3040.00
2018-02-25T07:39:12.375Z,3072.00
2018-02-25T07:40:12.345Z,3104.00
2018-02-25T07:41:12.317Z,3136.00
2018-02-25T07:42:12.310Z,3156.00
2018-02-25T07:43:12.254Z,3184.00
2018-02-25T07:44:12.224Z,3204.00
2018-02-25T07:45:12.193Z,3220.00
2018-02-25T07:46:12.164Z,3240.00
2018-02-25T07:47:12.141Z,3260.00
2018-02-25T07:48:12.102Z,3296.00
2018-02-25T07:49:12.073Z,3328.00
2018-02-25T07:50:12.046Z,3360.00
2018-02-25T07:51:12.020Z,3388.00
2018-02-25T07:52:11.986Z,3412.00
2018-02-25T07:53:11.959Z,3444.00
2018-02-25T07:54:11.923Z,3480.00
2018-02-25T07:55:11.891Z,3504.00
2018-02-25T07:56:11.990Z,3520.00
2018-02-25T07:57:11.834Z,3544.00
2018-02-25T07:58:11.802Z,3564.00
2018-02-25T07:59:11.861Z,3588.00
2018-02-25T08:00:11.744Z,3620.00
2018-02-25T08:01:11.724Z,3636.00
2018-02-25T08:02:11.715Z,3680.00
2018-02-25T08:03:11.653Z,3704.00
2018-02-25T08:04:11.627Z,3728.00
2018-02-25T08:05:11.599Z,3760.00
2018-02-25T08:06:11.565Z,3788.00
2018-02-25T08:07:11.548Z,3828.00
2018-02-25T08:08:11.506Z,3864.00
2018-02-25T08:09:11.475Z,3920.00
2018-02-25T08:10:11.458Z,3944.00
2018-02-25T08:11:11.416Z,3984.00
2018-02-25T08:12:11.385Z,4012.00
2018-02-25T08:13:11.370Z,4020.00
2018-02-25T08:14:11.330Z,4096.00
2018-02-25T08:15:11.308Z,4220.00
2018-02-25T08:16:11.323Z,4336.00
2018-02-25T08:17:11.234Z,4436.00
2018-02-25T08:18:11.205Z,4632.00
2018-02-25T08:19:11.223Z,4724.00
2018-02-25T08:20:11.145Z,4768.00
2018-02-25T08:21:11.121Z,4704.00
2018-02-25T08:22:11.083Z,4756.00
2018-02-25T08:23:11.071Z,4812.00
2018-02-25T08:24:11.023Z,4792.00
2018-02-25T08:25:10.997Z,4816.00
2018-02-25T08:26:10.966Z,5112.00
2018-02-25T08:27:10.934Z,5592.00
2018-02-25T08:28:10.907Z,5992.00
2018-02-25T08:29:10.882Z,6712.00
2018-02-25T08:30:10.842Z,7564.00
2018-02-25T08:31:10.830Z,8440.00
2018-02-25T08:32:10.785Z,9320.00
2018-02-25T08:33:10.755Z,10072.00
2018-02-25T08:34:10.724Z,10552.00
2018-02-25T08:35:10.695Z,10860.00
2018-02-25T08:36:10.666Z,11080.00
2018-02-25T08:37:10.658Z,11120.00
2018-02-25T08:38:10.653Z,11264.00
2018-02-25T08:39:10.583Z,11364.00
2018-02-25T08:40:10.559Z,11264.00
2018-02-25T08:41:10.639Z,11024.00
2018-02-25T08:42:10.564Z,10620.00
2018-02-25T08:43:10.462Z,10236.00
2018-02-25T08:44:10.497Z,9852.00
2018-02-25T08:45:10.407Z,9628.00
2018-02-25T08:46:10.377Z,9620.00
2018-02-25T08:47:10.354Z,9800.00
2018-02-25T08:48:10.320Z,9876.00
2018-02-25T08:49:10.297Z,9924.00
2018-02-25T08:50:10.266Z,10004.00
2018-02-25T08:51:10.231Z,9968.00
2018-02-25T08:52:10.203Z,10148.00
2018-02-25T08:53:10.181Z,10140.00
2018-02-25T08:54:10.156Z,9884.00
2018-02-25T08:55:10.121Z,9944.00
2018-02-25T08:56:10.091Z,10092.00
2018-02-25T08:57:10.063Z,10084.00
2018-02-25T08:58:10.033Z,10004.00
2018-02-25T08:59:10.008Z,9824.00
2018-02-25T09:00:09.979Z,9632.00
2018-02-25T09:01:09.958Z,9376.00
2018-02-25T09:02:09.928Z,9216.00
2018-02-25T09:03:09.895Z,9416.00
2018-02-25T09:04:09.866Z,12892.00
2018-02-25T09:05:09.845Z,21408.00
2018-02-25T09:06:09.808Z,30368.00
2018-02-25T09:07:09.782Z,43584.00
2018-02-25T09:08:09.753Z,30912.00
2018-02-25T09:09:09.733Z,35168.00
2018-02-25T09:10:09.704Z,39648.00
2018-02-25T09:11:09.667Z,36096.00
2018-02-25T09:12:09.652Z,39488.00
2018-02-25T09:13:09.620Z,43200.00
2018-02-25T09:14:09.616Z,42656.00
2018-02-25T09:15:09.632Z,39968.00
2018-02-25T09:16:09.530Z,45152.00
2018-02-25T09:17:09.506Z,27648.00
2018-02-25T09:18:09.478Z,21184.00
2018-02-25T09:19:09.456Z,33056.00
2018-02-25T09:20:09.445Z,43392.00
2018-02-25T09:21:09.404Z,38112.00
2018-02-25T09:22:09.379Z,46560.00
2018-02-25T09:23:09.436Z,46560.00
2018-02-25T09:24:09.324Z,45344.00
2018-02-25T09:25:09.308Z,51648.00
2018-02-25T09:26:09.377Z,57120.00
2018-02-25T09:27:09.251Z,58240.00
2018-02-25T09:28:09.228Z,62336.00
2018-02-25T09:29:09.207Z,61856.00
2018-02-25T09:30:09.196Z,48896.00
2018-02-25T09:31:09.154Z,42112.00
2018-02-25T09:32:09.137Z,41984.00
2018-02-25T09:33:09.107Z,26240.00
2018-02-25T09:34:09.094Z,26784.00
2018-02-25T09:35:09.072Z,42336.00
2018-02-25T09:36:09.047Z,30560.00
2018-02-25T09:37:09.020Z,46912.00
2018-02-25T09:38:08.996Z,50656.00
2018-02-25T09:39:08.973Z,46848.00
2018-02-25T09:40:08.959Z,36416.00
2018-02-25T09:41:08.933Z,35232.00
2018-02-25T09:42:08.911Z,38720.00
2018-02-25T09:43:08.888Z,35712.00
2018-02-25T09:44:08.878Z,35168.00
2018-02-25T09:45:08.864Z,33664.00
2018-02-25T09:46:08.832Z,30560.00
2018-02-25T09:47:08.804Z,24896.00
2018-02-25T09:48:08.786Z,24160.00
2018-02-25T09:49:08.761Z,24576.00
2018-02-25T09:50:08.742Z,25632.00
2018-02-25T09:51:08.723Z,35232.00
2018-02-25T09:52:08.702Z,40864.00
2018-02-25T09:53:08.685Z,30176.00
2018-02-25T09:54:08.660Z,44256.00
2018-02-25T09:55:08.640Z,43072.00
2018-02-25T09:56:08.705Z,45184.00
2018-02-25T09:57:08.601Z,46336.00
2018-02-25T09:58:08.580Z,38880.00
2018-02-25T09:59:08.564Z,27200.00
2018-02-25T10:00:08.543Z,37920.00
2018-02-25T10:01:08.523Z,25600.00
2018-02-25T10:02:08.506Z,27296.00
2018-02-25T10:03:08.481Z,31488.00
2018-02-25T10:04:08.463Z,34208.00
2018-02-25T10:05:08.442Z,38112.00
2018-02-25T10:06:08.424Z,40576.00
2018-02-25T10:07:08.403Z,46464.00
2018-02-25T10:08:08.390Z,44928.00
2018-02-25T10:09:08.363Z,42016.00
2018-02-25T10:10:08.342Z,48384.00
2018-02-25T10:11:08.331Z,59808.00
2018-02-25T10:12:08.302Z,53664.00
2018-02-25T10:13:08.288Z,53472.00
2018-02-25T10:14:08.270Z,54272.00
2018-02-25T10:15:08.408Z,51232.00
2018-02-25T10:16:08.229Z,47648.00
2018-02-25T10:17:08.211Z,52448.00
2018-02-25T10:18:08.192Z,55104.00
2018-02-25T10:19:08.172Z,55936.00
2018-02-25T10:20:08.149Z,59520.00
2018-02-25T10:21:08.135Z,60480.00
2018-02-25T10:22:08.119Z,53632.00
2018-02-25T10:23:08.097Z,31552.00
2018-02-25T10:24:08.077Z,60800.00
2018-02-25T10:25:08.065Z,57056.00
2018-02-25T10:26:08.048Z,56384.00
2018-02-25T10:27:08.020Z,60736.00
2018-02-25T10:28:07.999Z,64896.00
2018-02-25T10:29:07.984Z,64096.00
2018-02-25T10:30:07.960Z,65664.00
2018-02-25T10:31:07.943Z,63328.00
2018-02-25T10:32:07.927Z,64224.00
2018-02-25T10:33:07.905Z,65504.00
2018-02-25T10:34:07.895Z,66752.00
2018-02-25T10:35:07.867Z,66176.00
2018-02-25T10:36:07.845Z,59904.00
2018-02-25T10:37:07.872Z,60896.00
2018-02-25T10:38:07.810Z,61760.00
2018-02-25T10:39:07.790Z,62368.00
2018-02-25T10:40:07.774Z,62976.00
2018-02-25T10:41:07.751Z,59968.00
2018-02-25T10:42:07.769Z,57216.00
2018-02-25T10:43:07.714Z,61440.00
2018-02-25T10:44:07.693Z,58784.00
2018-02-25T10:45:07.691Z,49888.00
2018-02-25T10:46:07.654Z,46752.00
2018-02-25T10:47:07.636Z,49248.00
2018-02-25T10:48:07.643Z,55104.00
2018-02-25T10:49:07.595Z,58848.00
2018-02-25T10:50:07.575Z,60288.00
2018-02-25T10:51:07.558Z,58176.00
2018-02-25T10:52:07.541Z,57856.00
2018-02-25T10:53:07.523Z,53792.00
2018-02-25T10:54:07.498Z,47872.00
2018-02-25T10:55:07.484Z,40448.00
2018-02-25T10:56:07.458Z,42528.00
2018-02-25T10:57:07.441Z,48768.00
2018-02-25T10:58:07.421Z,46848.00
2018-02-25T10:59:07.401Z,46304.00
2018-02-25T11:00:07.385Z,50720.00
2018-02-25T11:01:07.398Z,50688.00
2018-02-25T11:02:07.339Z,47008.00
2018-02-25T11:03:07.324Z,38272.00
2018-02-25T11:04:07.349Z,28800.00
2018-02-25T11:05:07.291Z,19776.00
2018-02-25T11:06:07.270Z,17152.00
2018-02-25T11:07:07.260Z,16640.00
2018-02-25T11:08:07.221Z,15496.00
2018-02-25T11:09:07.201Z,14616.00
2018-02-25T11:10:07.192Z,13752.00
2018-02-25T11:11:07.155Z,13812.00
2018-02-25T11:12:07.134Z,14432.00
2018-02-25T11:13:07.112Z,14188.00
2018-02-25T11:14:07.092Z,13660.00
2018-02-25T11:15:07.120Z,13024.00
2018-02-25T11:16:07.058Z,12920.00
2018-02-25T11:17:07.033Z,13080.00
2018-02-25T11:18:07.036Z,12920.00
2018-02-25T11:19:06.992Z,12960.00
2018-02-25T11:20:06.964Z,11740.00
2018-02-25T11:21:06.942Z,11340.00
2018-02-25T11:22:06.919Z,11580.00
2018-02-25T11:23:06.919Z,11764.00
2018-02-25T11:24:06.889Z,11992.00
2018-02-25T11:25:06.863Z,12040.00
2018-02-25T11:26:06.908Z,12160.00
2018-02-25T11:27:06.818Z,12052.00
2018-02-25T11:28:06.797Z,11800.00
2018-02-25T11:29:06.779Z,11916.00
2018-02-25T11:30:06.761Z,12368.00
2018-02-25T11:31:06.738Z,12476.00
2018-02-25T11:32:06.719Z,12504.00
2018-02-25T11:33:06.689Z,12884.00
2018-02-25T11:34:06.675Z,13120.00
2018-02-25T11:35:06.645Z,13044.00
2018-02-25T11:36:06.633Z,12688.00
2018-02-25T11:37:06.634Z,12452.00
2018-02-25T11:38:06.582Z,12520.00
2018-02-25T11:39:06.557Z,12524.00
2018-02-25T11:40:06.543Z,12648.00
2018-02-25T11:41:06.511Z,12972.00
2018-02-25T11:42:06.496Z,13488.00
2018-02-25T11:43:06.467Z,13720.00
2018-02-25T11:44:06.450Z,13848.00
2018-02-25T11:45:06.430Z,13880.00
2018-02-25T11:46:06.399Z,13948.00
2018-02-25T11:47:06.393Z,13944.00
2018-02-25T11:48:06.364Z,13996.00
2018-02-25T11:49:06.335Z,13524.00
2018-02-25T11:50:06.313Z,13356.00
2018-02-25T11:51:06.347Z,13256.00
2018-02-25T11:52:06.267Z,13108.00
2018-02-25T11:53:06.252Z,12708.00
2018-02-25T11:54:06.226Z,12256.00
2018-02-25T11:55:06.209Z,11760.00
2018-02-25T11:56:06.270Z,10724.00
2018-02-25T11:57:06.162Z,10276.00
2018-02-25T11:58:06.128Z,10260.00
2018-02-25T11:59:06.175Z,10176.00
2018-02-25T12:00:06.083Z,10600.00
2018-02-25T12:01:06.088Z,10760.00
2018-02-25T12:02:06.038Z,11276.00
2018-02-25T12:03:06.017Z,14048.00
2018-02-25T12:04:05.993Z,22624.00
2018-02-25T12:05:05.982Z,32928.00
2018-02-25T12:06:05.947Z,41504.00
2018-02-25T12:07:05.928Z,46656.00
2018-02-25T12:08:05.899Z,46528.00
2018-02-25T12:09:05.871Z,47200.00
2018-02-25T12:10:05.878Z,49056.00
2018-02-25T12:11:05.830Z,50496.00
2018-02-25T12:12:05.805Z,50112.00
2018-02-25T12:13:05.777Z,45824.00
2018-02-25T12:14:05.759Z,28736.00
2018-02-25T12:15:05.731Z,10248.00
2018-02-25T12:16:05.723Z,7848.00
2018-02-25T12:17:05.687Z,7560.00
2018-02-25T12:18:05.661Z,7344.00
2018-02-25T12:19:05.642Z,7192.00
2018-02-25T12:20:05.618Z,7072.00
2018-02-25T12:21:05.588Z,6932.00
2018-02-25T12:22:05.576Z,6840.00
2018-02-25T12:23:05.544Z,6692.00
2018-02-25T12:24:05.510Z,6408.00
2018-02-25T12:25:05.493Z,6224.00
2018-02-25T12:26:05.463Z,6196.00
2018-02-25T12:27:05.501Z,6132.00
2018-02-25T12:28:05.430Z,6300.00
2018-02-25T12:29:05.397Z,6324.00
2018-02-25T12:30:05.365Z,6384.00
2018-02-25T12:31:05.338Z,6364.00
2018-02-25T12:32:05.694Z,6368.00
2018-02-25T12:33:05.300Z,6400.00